Time;durP1;ratioP1;P1;durP2;ratioP2;P2;SDS_P1;SDS_P2;PMS_P1;PMS_P2;Temp;Humidity;BMP_temperature;BMP_pressure;BME280_temperature;BME280_humidity;BME280_pressure;Samples;Min_cycle;Max_cycle;Signal;HPM_P1;HPM_P2
2023/08/19 00:01:34;;;;;;;;;;;;;;;;;;6184514;28;20372;-65
2023/08/19 00:04:34;;;;;;;;;;;;;;;;;;6182888;28;19912;-66
2023/08/19 00:07:35;;;;;;;;;;;;;;;;;;6182282;28;19957;-71
2023/08/19 00:10:35;;;;;;;;;;;;;;;;;;6188713;28;20495;-66
2023/08/19 00:13:35;;;;;;;;;;;;;;;;;;6195210;28;20357;-65
2023/08/19 00:16:35;;;;;;;;;;;;;;;;;;6182728;28;19987;-65
2023/08/19 00:19:35;;;;;;;;;;;;;;;;;;6184271;28;20349;-65
2023/08/19 00:22:36;;;;;;;;;;;;;;;;;;6183640;28;19932;-65
2023/08/19 00:25:36;;;;;;;;;;;;;;;;;;6181824;28;20423;-65
2023/08/19 00:28:36;;;;;;;;;;;;;;;;;;6183281;28;19949;-65
2023/08/19 00:31:39;;;;;;;;;;;;;;;;;;6181570;28;19988;-65
2023/08/19 00:34:39;;;;;;;;;;;;;;;;;;6189799;28;19940;-65
2023/08/19 00:37:39;;;;;;;;;;;;;;;;;;6187871;28;19949;-66
2023/08/19 00:40:39;;;;;;;;;;;;;;;;;;6193699;28;20542;-66
2023/08/19 00:43:40;;;;;;;;;;;;;;;;;;6193979;28;20364;-66
2023/08/19 00:46:40;;;;;;;;;;;;;;;;;;6183783;28;19918;-64
2023/08/19 00:49:40;;;;;;;;;;;;;;;;;;6187336;28;19921;-67
2023/08/19 00:52:40;;;;;;;;;;;;;;;;;;6192635;28;19984;-65
2023/08/19 00:55:40;;;;;;;;;;;;;;;;;;6189723;28;19940;-64
2023/08/19 00:58:40;;;;;;;;;;;;;;;;;;6200822;28;20052;-64
2023/08/19 01:01:41;;;;;;;;;;;;;;;;;;6214282;28;20019;-64
2023/08/19 01:04:41;;;;;;;;;;;;;;;;;;6201715;28;19913;-64
2023/08/19 01:07:41;;;;;;;;;;;;;;;;;;6199750;28;19914;-64
2023/08/19 01:10:41;;;;;;;;;;;;;;;;;;6193305;28;19929;-64
2023/08/19 01:13:41;;;;;;;;;;;;;;;;;;6186276;28;19910;-65
2023/08/19 01:16:42;;;;;;;;;;;;;;;;;;6180822;28;19928;-65
2023/08/19 01:19:42;;;;;;;;;;;;;;;;;;6187992;28;19917;-65
2023/08/19 01:22:42;;;;;;;;;;;;;;;;;;6188014;28;19917;-65
2023/08/19 01:25:42;;;;;;;;;;;;;;;;;;6184452;28;21613;-65
2023/08/19 01:28:42;;;;;;;;;;;;;;;;;;6188855;28;20325;-65
2023/08/19 01:31:42;;;;;;;;;;;;;;;;;;6182984;28;20292;-66
2023/08/19 01:34:43;;;;;;;;;;;;;;;;;;6188982;28;19914;-66
2023/08/19 01:37:43;;;;;;;;;;;;;;;;;;6187846;28;19914;-66
2023/08/19 01:40:43;;;;;;;;;;;;;;;;;;6184883;28;19916;-66
2023/08/19 01:43:43;;;;;;;;;;;;;;;;;;6186509;28;20004;-66
2023/08/19 01:46:43;;;;;;;;;;;;;;;;;;6183651;28;19917;-66
2023/08/19 01:49:43;;;;;;;;;;;;;;;;;;6188051;28;19909;-65
2023/08/19 01:52:43;;;;;;;;;;;;;;;;;;6189439;28;20296;-65
2023/08/19 01:55:43;;;;;;;;;;;;;;;;;;6183951;28;19920;-65
2023/08/19 01:58:44;;;;;;;;;;;;;;;;;;6183020;28;19913;-65
2023/08/19 02:01:44;;;;;;;;;;;;;;;;;;6183412;28;19918;-65
2023/08/19 02:04:44;;;;;;;;;;;;;;;;;;6190192;28;19917;-64
2023/08/19 02:07:44;;;;;;;;;;;;;;;;;;6197322;28;19928;-64
2023/08/19 02:10:44;;;;;;;;;;;;;;;;;;6202938;28;19941;-64
2023/08/19 02:13:44;;;;;;;;;;;;;;;;;;6188095;28;20068;-65
2023/08/19 02:16:44;;;;;;;;;;;;;;;;;;6185495;28;19924;-65
2023/08/19 02:19:44;;;;;;;;;;;;;;;;;;6187341;28;19957;-65
2023/08/19 02:22:45;;;;;;;;;;;;;;;;;;6189635;28;19910;-65
2023/08/19 02:25:45;;;;;;;;;;;;;;;;;;6183519;28;19914;-65
2023/08/19 02:28:45;;;;;;;;;;;;;;;;;;6188081;28;19914;-64
2023/08/19 02:31:45;;;;;;;;;;;;;;;;;;6194705;28;20422;-64
2023/08/19 02:34:45;;;;;;;;;;;;;;;;;;6196460;28;19925;-64
2023/08/19 02:37:45;;;;;;;;;;;;;;;;;;6190955;28;19910;-64
2023/08/19 02:40:46;;;;;;;;;;;;;;;;;;6183712;28;20320;-64
2023/08/19 02:43:46;;;;;;;;;;;;;;;;;;6183877;28;19996;-64
2023/08/19 02:46:46;;;;;;;;;;;;;;;;;;6183559;28;20298;-69
2023/08/19 02:49:46;;;;;;;;;;;;;;;;;;6182283;28;21557;-65
2023/08/19 02:52:46;;;;;;;;;;;;;;;;;;6192474;28;20433;-65
2023/08/19 02:55:46;;;;;;;;;;;;;;;;;;6185464;28;19913;-65
2023/08/19 02:58:46;;;;;;;;;;;;;;;;;;6201124;28;19940;-64
2023/08/19 03:01:46;;;;;;;;;;;;;;;;;;6199738;28;20012;-64
2023/08/19 03:04:46;;;;;;;;;;;;;;;;;;6205836;28;19929;-66
2023/08/19 03:07:47;;;;;;;;;;;;;;;;;;6200382;28;19961;-66
2023/08/19 03:10:47;;;;;;;;;;;;;;;;;;6201103;28;19956;-66
2023/08/19 03:13:47;;;;;;;;;;;;;;;;;;6210053;28;19964;-66
2023/08/19 03:16:49;;;;;;;;;;;;;;;;;;6203128;28;20017;-66
2023/08/19 03:19:49;;;;;;;;;;;;;;;;;;6199229;28;19920;-66
2023/08/19 03:22:50;;;;;;;;;;;;;;;;;;6198277;28;19913;-64
2023/08/19 03:25:50;;;;;;;;;;;;;;;;;;6191218;28;19913;-64
2023/08/19 03:28:50;;;;;;;;;;;;;;;;;;6205514;28;19913;-69
2023/08/19 03:31:50;;;;;;;;;;;;;;;;;;6200678;28;19918;-64
2023/08/19 03:34:50;;;;;;;;;;;;;;;;;;6202804;28;20455;-64
2023/08/19 03:37:50;;;;;;;;;;;;;;;;;;6192693;28;19918;-68
2023/08/19 03:40:50;;;;;;;;;;;;;;;;;;6193508;28;19920;-64
2023/08/19 03:43:50;;;;;;;;;;;;;;;;;;6195899;28;19917;-65
2023/08/19 03:46:50;;;;;;;;;;;;;;;;;;6187648;28;19965;-65
2023/08/19 03:49:51;;;;;;;;;;;;;;;;;;6178621;28;19918;-64
2023/08/19 03:52:51;;;;;;;;;;;;;;;;;;6186047;28;20376;-64
2023/08/19 03:55:51;;;;;;;;;;;;;;;;;;6184507;28;19913;-65
2023/08/19 03:58:51;;;;;;;;;;;;;;;;;;6184262;28;19918;-65
2023/08/19 04:01:52;;;;;;;;;;;;;;;;;;6183421;28;19910;-64
2023/08/19 04:04:53;;;;;;;;;;;;;;;;;;6184424;28;19936;-65
2023/08/19 04:07:53;;;;;;;;;;;;;;;;;;6184925;28;19992;-65
2023/08/19 04:10:54;;;;;;;;;;;;;;;;;;6186240;28;20001;-70
2023/08/19 04:13:54;;;;;;;;;;;;;;;;;;6189908;28;19914;-64
2023/08/19 04:16:54;;;;;;;;;;;;;;;;;;6183032;28;19917;-64
2023/08/19 04:19:54;;;;;;;;;;;;;;;;;;6188548;28;19920;-64
2023/08/19 04:22:54;;;;;;;;;;;;;;;;;;6189776;28;19910;-65
2023/08/19 04:25:55;;;;;;;;;;;;;;;;;;6189809;28;19909;-64
2023/08/19 04:28:55;;;;;;;;;;;;;;;;;;6190560;28;20343;-64
2023/08/19 04:31:55;;;;;;;;;;;;;;;;;;6185408;28;19917;-64
2023/08/19 04:34:55;;;;;;;;;;;;;;;;;;6188661;28;19971;-64
2023/08/19 04:37:55;;;;;;;;;;;;;;;;;;6183389;28;19910;-65
2023/08/19 04:40:56;;;;;;;;;;;;;;;;;;6192440;28;19997;-65
2023/08/19 04:43:57;;;;;;;;;;;;;;;;;;6189840;28;19983;-65
2023/08/19 04:46:57;;;;;;;;;;;;;;;;;;6186644;28;20062;-64
2023/08/19 04:49:57;;;;;;;;;;;;;;;;;;6188412;28;19918;-64
2023/08/19 04:52:57;;;;;;;;;;;;;;;;;;6186819;28;20438;-66
2023/08/19 04:55:59;;;;;;;;;;;;;;;;;;6181122;28;20332;-65
2023/08/19 04:59:00;;;;;;;;;;;;;;;;;;6184622;28;19918;-66
2023/08/19 05:02:01;;;;;;;;;;;;;;;;;;6185961;28;19920;-64
2023/08/19 05:05:01;;;;;;;;;;;;;;;;;;6186560;28;20000;-64
2023/08/19 05:08:01;;;;;;;;;;;;;;;;;;6184449;28;19909;-65
2023/08/19 05:11:01;;;;;;;;;;;;;;;;;;6186228;28;20405;-66
2023/08/19 05:14:01;;;;;;;;;;;;;;;;;;6186029;28;19984;-65
2023/08/19 05:17:02;;;;;;;;;;;;;;;;;;6187197;28;20287;-65
2023/08/19 05:20:02;;;;;;;;;;;;;;;;;;6182218;28;19925;-65
2023/08/19 05:23:02;;;;;;;;;;;;;;;;;;6184055;28;20048;-64
2023/08/19 05:26:02;;;;;;;;;;;;;;;;;;6185353;28;19948;-64
2023/08/19 05:29:02;;;;;;;;;;;;;;;;;;6183285;28;20345;-64
2023/08/19 05:32:04;;;;;;;;;;;;;;;;;;6185159;28;20494;-65
2023/08/19 05:35:04;;;;;;;;;;;;;;;;;;6189052;28;20447;-65
2023/08/19 05:38:04;;;;;;;;;;;;;;;;;;6183888;28;19968;-64
2023/08/19 05:41:04;;;;;;;;;;;;;;;;;;6188565;28;19996;-65
2023/08/19 05:44:05;;;;;;;;;;;;;;;;;;6188872;28;20016;-65
2023/08/19 05:47:05;;;;;;;;;;;;;;;;;;6183942;28;19916;-65
2023/08/19 05:50:05;;;;;;;;;;;;;;;;;;6190261;28;19918;-65
2023/08/19 05:53:05;;;;;;;;;;;;;;;;;;6186987;28;19917;-65
2023/08/19 05:56:05;;;;;;;;;;;;;;;;;;6188195;28;19965;-65
2023/08/19 05:59:05;;;;;;;;;;;;;;;;;;6196276;28;19922;-66
2023/08/19 06:02:06;;;;;;;;;;;;;;;;;;6194224;28;19956;-65
2023/08/19 06:05:06;;;;;;;;;;;;;;;;;;6200836;28;20427;-65
2023/08/19 06:08:06;;;;;;;;;;;;;;;;;;6199169;28;19909;-69
2023/08/19 06:11:09;;;;;;;;;;;;;;;;;;6197792;28;19906;-65
2023/08/19 06:14:09;;;;;;;;;;;;;;;;;;6198378;28;19909;-65
2023/08/19 06:17:09;;;;;;;;;;;;;;;;;;6192967;28;20340;-64
2023/08/19 06:20:09;;;;;;;;;;;;;;;;;;6198332;28;19929;-65
2023/08/19 06:23:09;;;;;;;;;;;;;;;;;;6191625;28;20076;-65
2023/08/19 06:26:09;;;;;;;;;;;;;;;;;;6201473;28;19914;-67
2023/08/19 06:29:10;;;;;;;;;;;;;;;;;;6208602;28;19917;-66
2023/08/19 06:32:10;;;;;;;;;;;;;;;;;;5846875;28;10000186;-64
2023/08/19 06:35:10;;;;;;;;;;;;;;;;;;6196277;28;19996;-65
2023/08/19 06:38:10;;;;;;;;;;;;;;;;;;6196187;28;19976;-66
2023/08/19 06:41:10;;;;;;;;;;;;;;;;;;6202247;28;20356;-66
2023/08/19 06:44:10;;;;;;;;;;;;;;;;;;6189687;28;19914;-66
2023/08/19 06:47:11;;;;;;;;;;;;;;;;;;6181493;28;19913;-66
2023/08/19 06:50:11;;;;;;;;;;;;;;;;;;6182225;28;19918;-73
2023/08/19 06:53:11;;;;;;;;;;;;;;;;;;6178553;28;19920;-67
2023/08/19 06:56:11;;;;;;;;;;;;;;;;;;6190546;28;19968;-66
2023/08/19 06:59:12;;;;;;;;;;;;;;;;;;6181338;28;20364;-65
2023/08/19 07:02:13;;;;;;;;;;;;;;;;;;6183872;28;20505;-65
2023/08/19 07:05:16;;;;;;;;;;;;;;;;;;6179882;28;20360;-65
2023/08/19 07:08:16;;;;;;;;;;;;;;;;;;6177103;28;20300;-70
2023/08/19 07:11:16;;;;;;;;;;;;;;;;;;6175543;28;19957;-71
2023/08/19 07:14:16;;;;;;;;;;;;;;;;;;6184303;28;19983;-71
2023/08/19 07:17:16;;;;;;;;;;;;;;;;;;6175725;28;19917;-70
2023/08/19 07:20:16;;;;;;;;;;;;;;;;;;6177435;28;19980;-69
2023/08/19 07:23:17;;;;;;;;;;;;;;;;;;6175853;28;19914;-71
2023/08/19 07:26:17;;;;;;;;;;;;;;;;;;6177382;28;19918;-71
2023/08/19 07:29:17;;;;;;;;;;;;;;;;;;6180722;28;19936;-70
2023/08/19 07:32:17;;;;;;;;;;;;;;;;;;6181375;28;19918;-70
2023/08/19 07:35:17;;;;;;;;;;;;;;;;;;6179436;28;19922;-70
2023/08/19 07:38:18;;;;;;;;;;;;;;;;;;6176592;28;19913;-71
2023/08/19 07:41:18;;;;;;;;;;;;;;;;;;5834279;28;9999734;-70
2023/08/19 07:44:18;;;;;;;;;;;;;;;;;;6176224;28;19944;-71
2023/08/19 07:47:18;;;;;;;;;;;;;;;;;;6176392;28;19932;-71
2023/08/19 07:50:19;;;;;;;;;;;;;;;;;;6179570;28;20281;-72
2023/08/19 07:53:19;;;;;;;;;;;;;;;;;;6179273;28;19914;-71
2023/08/19 07:56:19;;;;;;;;;;;;;;;;;;6177750;28;19921;-74
2023/08/19 07:59:19;;;;;;;;;;;;;;;;;;6180950;28;19922;-71
2023/08/19 08:02:20;;;;;;;;;;;;;;;;;;6179121;28;20356;-72
2023/08/19 08:05:20;;;;;;;;;;;;;;;;;;6180840;28;20020;-71
2023/08/19 08:08:20;;;;;;;;;;;;;;;;;;6178499;28;19917;-71
2023/08/19 08:11:20;;;;;;;;;;;;;;;;;;6161852;28;19910;-70
2023/08/19 08:14:20;;;;;;;;;;;;;;;;;;6192652;28;19944;-70
2023/08/19 08:17:27;;;;;;;;;;;;;;;;;;6180040;28;19961;-73
2023/08/19 08:20:27;;;;;;;;;;;;;;;;;;6184297;28;19963;-73
2023/08/19 08:23:27;;;;;;;;;;;;;;;;;;6196714;28;19913;-72
2023/08/19 08:26:27;;;;;;;;;;;;;;;;;;6177837;28;19910;-73
2023/08/19 08:29:27;;;;;;;;;;;;;;;;;;6184385;28;19910;-72
2023/08/19 08:32:27;;;;;;;;;;;;;;;;;;6175746;28;19917;-73
2023/08/19 08:35:28;;;;;;;;;;;;;;;;;;6179259;28;19921;-73
2023/08/19 08:38:28;;;;;;;;;;;;;;;;;;6186687;28;19909;-71
2023/08/19 08:41:28;;;;;;;;;;;;;;;;;;6197262;28;19922;-72
2023/08/19 08:44:28;;;;;;;;;;;;;;;;;;6189299;28;19910;-71
2023/08/19 08:47:28;;;;;;;;;;;;;;;;;;6188751;28;19999;-76
2023/08/19 08:50:28;;;;;;;;;;;;;;;;;;6195975;28;19916;-73
2023/08/19 08:53:29;;;;;;;;;;;;;;;;;;6196107;28;19964;-73
2023/08/19 08:56:29;;;;;;;;;;;;;;;;;;6203209;28;19917;-73
2023/08/19 08:59:29;;;;;;;;;;;;;;;;;;6213714;28;20310;-71
2023/08/19 09:02:29;;;;;;;;;;;;;;;;;;6199866;28;19905;-71
2023/08/19 09:05:29;;;;;;;;;;;;;;;;;;6188882;28;19936;-71
2023/08/19 09:08:29;;;;;;;;;;;;;;;;;;6196527;28;19929;-72
2023/08/19 09:11:30;;;;;;;;;;;;;;;;;;6175818;28;19937;-72
2023/08/19 09:14:30;;;;;;;;;;;;;;;;;;6174827;28;20045;-73
2023/08/19 09:17:30;;;;;;;;;;;;;;;;;;6175023;28;19914;-73
2023/08/19 09:20:30;;;;;;;;;;;;;;;;;;6176182;28;19992;-73
2023/08/19 09:23:30;;;;;;;;;;;;;;;;;;6182211;28;19935;-72
2023/08/19 09:26:31;;;;;;;;;;;;;;;;;;6174096;28;19910;-73
2023/08/19 09:29:32;;;;;;;;;;;;;;;;;;6157960;28;19920;-77
2023/08/19 09:32:32;;;;;;;;;;;;;;;;;;6174823;28;19937;-72
2023/08/19 09:35:32;;;;;;;;;;;;;;;;;;6174988;28;19924;-72
2023/08/19 09:38:32;;;;;;;;;;;;;;;;;;6175315;28;19921;-71
2023/08/19 09:41:33;;;;;;;;;;;;;;;;;;6177981;28;20388;-73
2023/08/19 09:44:33;;;;;;;;;;;;;;;;;;6176427;28;19914;-71
2023/08/19 09:47:34;;;;;;;;;;;;;;;;;;6175091;28;19956;-73
2023/08/19 09:50:34;;;;;;;;;;;;;;;;;;6175277;28;20071;-72
2023/08/19 09:53:34;;;;;;;;;;;;;;;;;;6175401;28;19914;-73
2023/08/19 09:56:34;;;;;;;;;;;;;;;;;;6173632;28;19921;-73
2023/08/19 09:59:34;;;;;;;;;;;;;;;;;;6208272;28;19917;-73
2023/08/19 10:02:35;;;;;;;;;;;;;;;;;;6222732;28;19958;-73
2023/08/19 10:05:35;;;;;;;;;;;;;;;;;;6210817;28;19910;-72
2023/08/19 10:08:35;;;;;;;;;;;;;;;;;;6198576;28;19906;-72
2023/08/19 10:11:35;;;;;;;;;;;;;;;;;;6198275;28;19916;-74
2023/08/19 10:14:35;;;;;;;;;;;;;;;;;;6210584;28;19956;-73
2023/08/19 10:17:36;;;;;;;;;;;;;;;;;;6198399;28;19921;-74
2023/08/19 10:20:36;;;;;;;;;;;;;;;;;;6199539;28;19922;-74
2023/08/19 10:23:36;;;;;;;;;;;;;;;;;;6185785;28;19913;-74
2023/08/19 10:26:36;;;;;;;;;;;;;;;;;;6194617;28;20000;-74
2023/08/19 10:29:36;;;;;;;;;;;;;;;;;;6206042;28;19910;-74
2023/08/19 10:32:41;;;;;;;;;;;;;;;;;;6207407;28;20016;-73
2023/08/19 10:35:41;;;;;;;;;;;;;;;;;;6198639;28;19918;-74
2023/08/19 10:38:42;;;;;;;;;;;;;;;;;;6198246;28;19920;-73
2023/08/19 10:41:42;;;;;;;;;;;;;;;;;;6197711;28;19952;-72
2023/08/19 10:44:42;;;;;;;;;;;;;;;;;;6181009;28;20369;-74
2023/08/19 10:47:42;;;;;;;;;;;;;;;;;;6185807;28;19918;-75
2023/08/19 10:50:42;;;;;;;;;;;;;;;;;;6177840;28;20367;-74
2023/08/19 10:53:42;;;;;;;;;;;;;;;;;;6200639;28;20376;-73
2023/08/19 10:56:43;;;;;;;;;;;;;;;;;;6199670;28;19957;-74
2023/08/19 10:59:43;;;;;;;;;;;;;;;;;;6196760;28;19954;-75
2023/08/19 11:02:43;;;;;;;;;;;;;;;;;;6195226;28;20004;-74
2023/08/19 11:05:43;;;;;;;;;;;;;;;;;;6197034;28;19910;-74
2023/08/19 11:08:43;;;;;;;;;;;;;;;;;;6197949;28;20399;-74
2023/08/19 11:11:43;;;;;;;;;;;;;;;;;;6221006;28;19931;-76
2023/08/19 11:14:43;;;;;;;;;;;;;;;;;;6208694;28;19917;-75
2023/08/19 11:17:44;;;;;;;;;;;;;;;;;;6188602;28;19914;-74
2023/08/19 11:20:44;;;;;;;;;;;;;;;;;;6173101;28;19917;-74
2023/08/19 11:23:48;;;;;;;;;;;;;;;;;;6176558;28;19917;-75
2023/08/19 11:26:48;;;;;;;;;;;;;;;;;;6192242;28;19916;-79
2023/08/19 11:29:48;;;;;;;;;;;;;;;;;;6216807;28;19910;-75
2023/08/19 11:32:49;;;;;;;;;;;;;;;;;;6210031;28;19917;-75
2023/08/19 11:35:49;;;;;;;;;;;;;;;;;;6185596;28;19921;-75
2023/08/19 11:38:49;;;;;;;;;;;;;;;;;;6197110;28;19910;-75
2023/08/19 11:41:50;;;;;;;;;;;;;;;;;;6196545;28;19948;-76
2023/08/19 11:44:50;;;;;;;;;;;;;;;;;;6179436;28;20016;-78
2023/08/19 11:47:50;;;;;;;;;;;;;;;;;;6196530;28;20015;-75
2023/08/19 11:50:50;;;;;;;;;;;;;;;;;;6195528;28;20324;-75
2023/08/19 11:53:50;;;;;;;;;;;;;;;;;;6196949;28;20313;-74
2023/08/19 11:56:50;;;;;;;;;;;;;;;;;;6195803;28;19917;-74
2023/08/19 11:59:50;;;;;;;;;;;;;;;;;;6196027;28;19918;-74
2023/08/19 12:02:50;;;;;;;;;;;;;;;;;;6178360;28;19917;-74
2023/08/19 12:05:51;;;;;;;;;;;;;;;;;;6196863;28;19910;-74
2023/08/19 12:08:51;;;;;;;;;;;;;;;;;;6195931;28;19918;-78
2023/08/19 12:11:51;;;;;;;;;;;;;;;;;;6196313;28;20009;-76
2023/08/19 12:14:51;;;;;;;;;;;;;;;;;;6195658;28;19980;-74
2023/08/19 12:17:51;;;;;;;;;;;;;;;;;;6177996;28;19918;-74
2023/08/19 12:20:51;;;;;;;;;;;;;;;;;;6197034;28;19909;-74
2023/08/19 12:23:53;;;;;;;;;;;;;;;;;;6192040;28;19910;-73
2023/08/19 12:26:53;;;;;;;;;;;;;;;;;;6194844;28;20360;-68
2023/08/19 12:29:53;;;;;;;;;;;;;;;;;;6196175;28;19920;-68
2023/08/19 12:32:53;;;;;;;;;;;;;;;;;;6200072;28;19910;-68
2023/08/19 12:35:53;;;;;;;;;;;;;;;;;;6185245;28;19913;-67
2023/08/19 12:38:54;;;;;;;;;;;;;;;;;;6197831;28;20328;-69
2023/08/19 12:41:54;;;;;;;;;;;;;;;;;;6198743;28;19996;-69
2023/08/19 12:44:54;;;;;;;;;;;;;;;;;;6199787;28;19909;-68
2023/08/19 12:47:54;;;;;;;;;;;;;;;;;;6199710;28;20360;-68
2023/08/19 12:50:54;;;;;;;;;;;;;;;;;;6200160;28;19956;-71
2023/08/19 12:53:54;;;;;;;;;;;;;;;;;;6199727;28;19929;-69
2023/08/19 12:56:54;;;;;;;;;;;;;;;;;;6199333;28;19913;-69
2023/08/19 12:59:54;;;;;;;;;;;;;;;;;;6206619;28;19917;-68
2023/08/19 13:02:56;;;;;;;;;;;;;;;;;;6224051;28;20397;-69
2023/08/19 13:05:56;;;;;;;;;;;;;;;;;;6205405;28;19920;-69
2023/08/19 13:08:56;;;;;;;;;;;;;;;;;;6203751;28;19925;-70
2023/08/19 13:11:56;;;;;;;;;;;;;;;;;;6184856;28;19956;-69
2023/08/19 13:14:56;;;;;;;;;;;;;;;;;;6221902;28;19988;-70
2023/08/19 13:17:57;;;;;;;;;;;;;;;;;;6199475;28;19910;-70
2023/08/19 13:20:58;;;;;;;;;;;;;;;;;;6199999;28;19906;-70
2023/08/19 13:23:58;;;;;;;;;;;;;;;;;;6199866;28;19916;-70
2023/08/19 13:26:58;;;;;;;;;;;;;;;;;;6216025;28;19910;-70
2023/08/19 13:29:58;;;;;;;;;;;;;;;;;;6198540;28;19912;-69
2023/08/19 13:32:58;;;;;;;;;;;;;;;;;;6212667;28;20324;-70
2023/08/19 13:35:58;;;;;;;;;;;;;;;;;;6210199;28;19964;-69
2023/08/19 13:38:59;;;;;;;;;;;;;;;;;;6198864;28;19910;-75
2023/08/19 13:41:59;;;;;;;;;;;;;;;;;;6198289;28;19946;-76
2023/08/19 13:44:59;;;;;;;;;;;;;;;;;;6203352;28;20360;-74
2023/08/19 13:47:59;;;;;;;;;;;;;;;;;;6205870;28;19917;-73
2023/08/19 13:50:59;;;;;;;;;;;;;;;;;;6223309;28;20371;-75
2023/08/19 13:53:59;;;;;;;;;;;;;;;;;;6214907;28;19912;-73
2023/08/19 13:56:59;;;;;;;;;;;;;;;;;;6219644;28;19983;-74
2023/08/19 14:00:00;;;;;;;;;;;;;;;;;;6208653;28;19921;-76
2023/08/19 14:03:01;;;;;;;;;;;;;;;;;;6219530;28;19913;-76
2023/08/19 14:06:02;;;;;;;;;;;;;;;;;;6207801;28;19990;-74
2023/08/19 14:09:02;;;;;;;;;;;;;;;;;;6199269;28;19914;-75
2023/08/19 14:12:02;;;;;;;;;;;;;;;;;;6222052;28;19909;-75
2023/08/19 14:15:03;;;;;;;;;;;;;;;;;;6215892;28;19906;-74
2023/08/19 14:18:03;;;;;;;;;;;;;;;;;;6198168;28;19913;-74
2023/08/19 14:21:03;;;;;;;;;;;;;;;;;;6197151;28;19909;-75
2023/08/19 14:24:03;;;;;;;;;;;;;;;;;;6207365;28;19916;-75
2023/08/19 14:27:04;;;;;;;;;;;;;;;;;;6198032;28;20404;-75
2023/08/19 14:30:04;;;;;;;;;;;;;;;;;;6198325;28;19913;-75
2023/08/19 14:33:04;;;;;;;;;;;;;;;;;;6212536;28;19913;-75
2023/08/19 14:36:04;;;;;;;;;;;;;;;;;;6208031;28;19920;-75
2023/08/19 14:39:04;;;;;;;;;;;;;;;;;;6198363;28;20380;-75
2023/08/19 14:42:04;;;;;;;;;;;;;;;;;;6196993;28;19905;-74
2023/08/19 14:45:05;;;;;;;;;;;;;;;;;;6196299;28;20387;-74
2023/08/19 14:48:05;;;;;;;;;;;;;;;;;;6197582;28;20383;-79
2023/08/19 14:51:05;;;;;;;;;;;;;;;;;;6217539;28;19906;-74
2023/08/19 14:54:06;;;;;;;;;;;;;;;;;;6220187;28;20368;-73
2023/08/19 14:57:07;;;;;;;;;;;;;;;;;;6198076;28;19909;-73
2023/08/19 15:00:10;;;;;;;;;;;;;;;;;;6196540;28;19943;-74
2023/08/19 15:03:13;;;;;;;;;;;;;;;;;;6193735;28;19979;-74
2023/08/19 15:06:14;;;;;;;;;;;;;;;;;;6195412;28;19914;-73
2023/08/19 15:09:14;;;;;;;;;;;;;;;;;;6200843;28;19964;-74
2023/08/19 15:12:15;;;;;;;;;;;;;;;;;;6202049;28;19989;-75
2023/08/19 15:15:17;;;;;;;;;;;;;;;;;;6211663;28;19925;-74
2023/08/19 15:18:17;;;;;;;;;;;;;;;;;;6197075;28;19905;-74
2023/08/19 15:21:17;;;;;;;;;;;;;;;;;;6196653;28;19933;-74
2023/08/19 15:24:17;;;;;;;;;;;;;;;;;;6177778;28;20368;-75
2023/08/19 15:27:17;;;;;;;;;;;;;;;;;;6189836;28;20001;-76
2023/08/19 15:30:18;;;;;;;;;;;;;;;;;;6194696;28;19917;-76
2023/08/19 15:33:18;;;;;;;;;;;;;;;;;;6196315;28;19929;-73
2023/08/19 15:36:18;;;;;;;;;;;;;;;;;;6178782;28;20003;-73
2023/08/19 15:39:18;;;;;;;;;;;;;;;;;;6193547;28;19980;-73
2023/08/19 15:42:19;;;;;;;;;;;;;;;;;;6196042;28;19933;-73
2023/08/19 15:45:19;;;;;;;;;;;;;;;;;;6194638;28;19917;-73
2023/08/19 15:48:19;;;;;;;;;;;;;;;;;;6196441;28;20273;-73
2023/08/19 15:51:19;;;;;;;;;;;;;;;;;;6196945;28;20008;-75
2023/08/19 15:54:19;;;;;;;;;;;;;;;;;;6196072;28;20327;-75
2023/08/19 15:57:19;;;;;;;;;;;;;;;;;;6196695;28;20390;-73
2023/08/19 16:00:19;;;;;;;;;;;;;;;;;;6196629;28;19925;-74
2023/08/19 16:03:20;;;;;;;;;;;;;;;;;;6194402;28;19914;-73
2023/08/19 16:06:20;;;;;;;;;;;;;;;;;;6201690;28;20327;-73
2023/08/19 16:09:20;;;;;;;;;;;;;;;;;;6183790;28;19909;-73
2023/08/19 16:12:20;;;;;;;;;;;;;;;;;;6200794;28;20427;-72
2023/08/19 16:15:20;;;;;;;;;;;;;;;;;;6200798;28;20015;-72
2023/08/19 16:18:20;;;;;;;;;;;;;;;;;;6216963;28;19963;-72
2023/08/19 16:21:20;;;;;;;;;;;;;;;;;;6204149;28;19909;-72
2023/08/19 16:24:20;;;;;;;;;;;;;;;;;;6200514;28;19913;-73
2023/08/19 16:27:21;;;;;;;;;;;;;;;;;;6201012;28;19914;-74
2023/08/19 16:30:21;;;;;;;;;;;;;;;;;;6201102;28;20016;-74
2023/08/19 16:33:21;;;;;;;;;;;;;;;;;;6193437;28;19914;-74
2023/08/19 16:36:21;;;;;;;;;;;;;;;;;;6199133;28;19965;-73
2023/08/19 16:39:22;;;;;;;;;;;;;;;;;;6200948;28;19967;-73
2023/08/19 16:42:23;;;;;;;;;;;;;;;;;;6199754;28;19951;-73
2023/08/19 16:45:23;;;;;;;;;;;;;;;;;;6200061;28;19905;-73
2023/08/19 16:48:23;;;;;;;;;;;;;;;;;;6200657;28;19906;-73
2023/08/19 16:51:23;;;;;;;;;;;;;;;;;;6201262;28;19932;-73
2023/08/19 16:54:23;;;;;;;;;;;;;;;;;;6198578;28;19929;-73
2023/08/19 16:57:24;;;;;;;;;;;;;;;;;;6200608;28;19914;-73
2023/08/19 17:00:24;;;;;;;;;;;;;;;;;;6205310;28;19933;-71
2023/08/19 17:03:24;;;;;;;;;;;;;;;;;;6199548;28;19993;-72
2023/08/19 17:06:24;;;;;;;;;;;;;;;;;;6199900;28;19910;-72
2023/08/19 17:09:24;;;;;;;;;;;;;;;;;;6214610;28;19914;-72
2023/08/19 17:12:24;;;;;;;;;;;;;;;;;;6217621;28;19909;-72
2023/08/19 17:15:24;;;;;;;;;;;;;;;;;;6189766;28;20005;-72
2023/08/19 17:18:25;;;;;;;;;;;;;;;;;;6200575;28;19909;-72
2023/08/19 17:21:25;;;;;;;;;;;;;;;;;;6212827;28;19913;-72
2023/08/19 17:24:25;;;;;;;;;;;;;;;;;;6194322;28;20410;-72
2023/08/19 17:27:25;;;;;;;;;;;;;;;;;;6183028;28;19905;-76
2023/08/19 17:30:25;;;;;;;;;;;;;;;;;;6200027;28;20001;-72
2023/08/19 17:33:25;;;;;;;;;;;;;;;;;;6195469;28;19909;-73
2023/08/19 17:36:26;;;;;;;;;;;;;;;;;;6200553;28;19909;-71
2023/08/19 17:39:26;;;;;;;;;;;;;;;;;;6199254;28;20260;-71
2023/08/19 17:42:27;;;;;;;;;;;;;;;;;;6202068;28;19921;-72
2023/08/19 17:45:27;;;;;;;;;;;;;;;;;;6197000;28;20283;-71
2023/08/19 17:48:27;;;;;;;;;;;;;;;;;;6216352;28;19914;-71
2023/08/19 17:51:27;;;;;;;;;;;;;;;;;;6199531;28;19940;-72
2023/08/19 17:54:27;;;;;;;;;;;;;;;;;;6198677;28;19910;-71
2023/08/19 17:57:27;;;;;;;;;;;;;;;;;;6198276;28;19967;-71
2023/08/19 18:00:27;;;;;;;;;;;;;;;;;;6199399;28;19917;-72
2023/08/19 18:03:27;;;;;;;;;;;;;;;;;;6198408;28;19910;-72
2023/08/19 18:06:27;;;;;;;;;;;;;;;;;;6198865;28;19989;-72
2023/08/19 18:09:29;;;;;;;;;;;;;;;;;;6197714;28;20296;-77
2023/08/19 18:12:29;;;;;;;;;;;;;;;;;;6198043;28;19932;-73
2023/08/19 18:15:29;;;;;;;;;;;;;;;;;;6198494;28;19914;-72
2023/08/19 18:18:29;;;;;;;;;;;;;;;;;;6198111;28;19954;-72
2023/08/19 18:21:30;;;;;;;;;;;;;;;;;;6204378;28;19971;-72
2023/08/19 18:24:30;;;;;;;;;;;;;;;;;;6197793;28;20353;-72
2023/08/19 18:27:30;;;;;;;;;;;;;;;;;;6197358;28;20387;-72
2023/08/19 18:30:30;;;;;;;;;;;;;;;;;;6197358;28;19976;-71
2023/08/19 18:33:30;;;;;;;;;;;;;;;;;;6206287;28;20292;-71
2023/08/19 18:36:30;;;;;;;;;;;;;;;;;;6202791;28;19913;-72
2023/08/19 18:39:30;;;;;;;;;;;;;;;;;;6204491;28;19914;-72
2023/08/19 18:42:30;;;;;;;;;;;;;;;;;;6196533;28;19909;-73
2023/08/19 18:45:31;;;;;;;;;;;;;;;;;;6196456;28;19910;-73
2023/08/19 18:48:31;;;;;;;;;;;;;;;;;;6197574;28;19910;-73
2023/08/19 18:51:31;;;;;;;;;;;;;;;;;;6197102;28;19914;-74
2023/08/19 18:54:31;;;;;;;;;;;;;;;;;;6196629;28;19913;-72
2023/08/19 18:57:32;;;;;;;;;;;;;;;;;;6197035;28;19961;-73
2023/08/19 19:00:32;;;;;;;;;;;;;;;;;;6206223;28;20404;-72
2023/08/19 19:03:33;;;;;;;;;;;;;;;;;;6212222;28;19979;-72
2023/08/19 19:06:33;;;;;;;;;;;;;;;;;;6202777;28;20202;-72
2023/08/19 19:09:34;;;;;;;;;;;;;;;;;;6197390;28;19921;-72
2023/08/19 19:12:34;;;;;;;;;;;;;;;;;;6197124;28;19980;-72
2023/08/19 19:15:34;;;;;;;;;;;;;;;;;;6196536;28;19910;-72
2023/08/19 19:18:34;;;;;;;;;;;;;;;;;;6195845;28;19949;-72
2023/08/19 19:21:34;;;;;;;;;;;;;;;;;;6186638;28;20016;-72
2023/08/19 19:24:34;;;;;;;;;;;;;;;;;;6197374;28;19925;-72
2023/08/19 19:27:35;;;;;;;;;;;;;;;;;;6197145;28;19917;-72
2023/08/19 19:30:36;;;;;;;;;;;;;;;;;;6211523;28;19920;-72
2023/08/19 19:33:36;;;;;;;;;;;;;;;;;;6204975;28;20420;-73
2023/08/19 19:36:38;;;;;;;;;;;;;;;;;;6197571;28;19909;-73
2023/08/19 19:39:39;;;;;;;;;;;;;;;;;;6197111;28;19959;-73
2023/08/19 19:42:39;;;;;;;;;;;;;;;;;;6203686;28;19909;-72
2023/08/19 19:45:39;;;;;;;;;;;;;;;;;;6212928;28;19909;-72
2023/08/19 19:48:39;;;;;;;;;;;;;;;;;;6196875;28;19953;-73
2023/08/19 19:51:39;;;;;;;;;;;;;;;;;;6205094;28;19909;-72
2023/08/19 19:54:39;;;;;;;;;;;;;;;;;;6212835;28;19909;-72
2023/08/19 19:57:40;;;;;;;;;;;;;;;;;;6217496;28;19944;-71
2023/08/19 20:00:40;;;;;;;;;;;;;;;;;;6196063;28;19929;-71
2023/08/19 20:03:40;;;;;;;;;;;;;;;;;;6207406;28;19975;-72
2023/08/19 20:06:40;;;;;;;;;;;;;;;;;;6200768;28;19917;-74
2023/08/19 20:09:40;;;;;;;;;;;;;;;;;;6196956;28;19984;-71
2023/08/19 20:12:40;;;;;;;;;;;;;;;;;;6196185;28;19906;-72
2023/08/19 20:15:41;;;;;;;;;;;;;;;;;;6195860;28;19918;-71
2023/08/19 20:18:41;;;;;;;;;;;;;;;;;;6204898;28;19932;-72
2023/08/19 20:21:41;;;;;;;;;;;;;;;;;;6208132;28;19909;-71
2023/08/19 20:24:41;;;;;;;;;;;;;;;;;;6174660;28;20359;-73
2023/08/19 20:27:41;;;;;;;;;;;;;;;;;;6172498;28;19910;-73
2023/08/19 20:30:41;;;;;;;;;;;;;;;;;;6188215;28;19914;-73